Time,TemperatureF,DewpointF,PressureIn,WindDirection,WindDirectionDegrees,WindSpeedMPH,WindSpeedGustMPH,Humidity,HourlyPrecipIn,Conditions,Clouds,dailyrainin,SolarRadiationWatts/m^2,SoftwareType,DateUTC
2013-04-18 15:20:00,62.6,61.2,29.62,SSE,157,4.0,4.0,95,2.20,,,0.05,162.00,VWS V14.01,2013-04-18 19:20:00,
2013-04-18 15:21:00,62.6,61.2,29.62,SE,141,4.0,4.0,95,0.00,,,0.05,141.00,VWS V14.01,2013-04-18 19:21:00,
2013-04-18 15:22:00,62.6,61.2,29.62,SSE,153,3.0,4.0,95,0.00,,,0.05,105.00,VWS V14.01,2013-04-18 19:22:00,
2013-04-18 15:23:00,62.6,61.2,29.63,SE,145,3.0,4.0,95,0.00,,,0.05,90.00,VWS V14.01,2013-04-18 19:23:00,
2013-04-18 15:24:00,62.6,61.2,29.63,SE,141,3.0,4.0,95,0.00,,,0.05,79.00,VWS V14.01,2013-04-18 19:24:00,
2013-04-18 15:25:00,62.5,61.0,29.63,SE,146,3.0,4.0,95,0.00,,,0.05,86.00,VWS V14.01,2013-04-18 19:25:00,
2013-04-18 15:26:00,62.5,61.0,29.63,SE,142,3.0,4.0,95,0.00,,,0.05,86.00,VWS V14.01,2013-04-18 19:26:00,
2013-04-18 15:27:00,62.5,61.0,29.63,SE,136,3.0,4.0,95,0.00,,,0.05,93.00,VWS V14.01,2013-04-18 19:27:00,
2013-04-18 15:28:00,62.5,61.0,29.63,SSE,160,3.0,5.0,95,0.00,,,0.05,88.00,VWS V14.01,2013-04-18 19:28:00,
2013-04-18 15:30:00,62.4,61.0,29.63,SSE,151,2.0,5.0,95,0.00,,,0.05,84.00,VWS V14.01,2013-04-18 19:30:00,
2013-04-18 15:31:00,62.4,61.0,29.63,SSE,153,4.0,5.0,95,0.00,,,0.05,91.00,VWS V14.01,2013-04-18 19:31:00,
2013-04-18 15:32:00,62.3,60.8,29.63,SSE,149,4.0,4.0,95,0.00,,,0.05,93.00,VWS V14.01,2013-04-18 19:32:00,
2013-04-18 15:33:00,62.4,61.0,29.64,SSE,155,2.0,4.0,95,0.00,,,0.05,95.00,VWS V14.01,2013-04-18 19:33:00,
2013-04-18 15:34:00,62.4,61.0,29.63,South,176,2.0,3.0,95,0.00,,,0.05,102.00,VWS V14.01,2013-04-18 19:34:00,
2013-04-18 15:35:00,62.3,60.8,29.63,South,177,6.0,6.0,95,0.01,,,0.06,123.00,VWS V14.01,2013-04-18 19:35:00,
2013-04-18 15:36:00,62.4,61.0,29.63,South,171,2.0,6.0,95,0.01,,,0.06,132.00,VWS V14.01,2013-04-18 19:36:00,
2013-04-18 15:37:00,62.4,61.0,29.62,SE,128,3.0,3.0,95,0.01,,,0.06,144.00,VWS V14.01,2013-04-18 19:37:00,
2013-04-18 15:38:00,62.4,61.2,29.62,SSE,155,3.0,4.0,96,0.01,,,0.06,144.00,VWS V14.01,2013-04-18 19:38:00,
2013-04-18 15:39:00,62.4,61.0,29.62,SSE,148,2.0,3.0,95,0.01,,,0.06,149.00,VWS V14.01,2013-04-18 19:39:00,
2013-04-18 15:40:00,62.5,61.3,29.63,SSE,158,4.0,4.0,96,0.01,,,0.06,125.00,VWS V14.01,2013-04-18 19:40:00,
2013-04-18 15:41:00,62.5,61.3,29.63,SSE,157,3.0,4.0,96,0.01,,,0.06,125.00,VWS V14.01,2013-04-18 19:41:00,
2013-04-18 15:42:00,62.5,61.3,29.63,SE,146,2.0,4.0,96,0.01,,,0.06,114.00,VWS V14.01,2013-04-18 19:42:00,
2013-04-18 15:43:00,62.5,61.3,29.63,SE,142,4.0,5.0,96,0.01,,,0.06,114.00,VWS V14.01,2013-04-18 19:43:00,
2013-04-18 15:44:00,62.4,61.0,29.63,SSE,148,2.0,4.0,95,0.01,,,0.06,120.00,VWS V14.01,2013-04-18 19:44:00,
2013-04-18 15:45:00,62.4,61.0,29.62,SE,137,2.0,3.0,95,0.01,,,0.06,130.00,VWS V14.01,2013-04-18 19:45:00,
2013-04-18 15:46:00,62.5,61.0,29.62,SE,137,1.0,3.0,95,0.01,,,0.06,130.00,VWS V14.01,2013-04-18 19:46:00,
2013-04-18 15:47:00,62.5,61.3,29.62,SE,145,2.0,5.0,96,0.01,,,0.06,156.00,VWS V14.01,2013-04-18 19:47:00,
2013-04-18 15:48:00,62.5,61.3,29.61,SE,144,2.0,3.0,96,0.01,,,0.06,172.00,VWS V14.01,2013-04-18 19:48:00,
2013-04-18 15:49:00,62.5,61.3,29.61,SE,144,2.0,3.0,96,0.01,,,0.06,172.00,VWS V14.01,2013-04-18 19:49:00,
2013-04-18 15:50:00,62.5,61.3,29.60,SE,141,1.0,4.0,96,0.01,,,0.06,183.00,VWS V14.01,2013-04-18 19:50:00,
2013-04-18 15:51:00,62.6,61.5,29.60,SE,141,2.0,4.0,96,0.01,,,0.06,183.00,VWS V14.01,2013-04-18 19:51:00,
2013-04-18 15:52:00,62.6,61.5,29.60,SE,145,2.0,3.0,96,0.01,,,0.06,200.00,VWS V14.01,2013-04-18 19:52:00,
2013-04-18 15:53:00,62.7,61.5,29.60,SSE,147,3.0,3.0,96,0.01,,,0.06,220.00,VWS V14.01,2013-04-18 19:53:00,
2013-04-18 15:54:00,62.7,61.5,29.61,SSE,150,4.0,5.0,96,0.01,,,0.06,255.00,VWS V14.01,2013-04-18 19:54:00,
2013-04-18 15:55:00,62.7,61.2,29.62,SE,132,5.0,5.0,95,0.01,,,0.06,276.00,VWS V14.01,2013-04-18 19:55:00,
2013-04-18 15:56:00,62.7,61.2,29.62,SSE,150,3.0,5.0,95,0.01,,,0.06,276.00,VWS V14.01,2013-04-18 19:56:00,
2013-04-18 15:57:00,62.8,61.7,29.62,SE,126,3.0,4.0,96,0.01,,,0.06,323.00,VWS V14.01,2013-04-18 19:57:00,
2013-04-18 15:58:00,63.0,61.8,29.62,SSE,148,3.0,4.0,96,0.01,,,0.06,279.00,VWS V14.01,2013-04-18 19:58:00,
2013-04-18 15:59:00,63.1,61.9,29.62,SSE,152,4.0,6.0,96,0.01,,,0.06,188.00,VWS V14.01,2013-04-18 19:59:00,
2013-04-18 16:00:00,63.1,61.9,29.63,SSE,151,4.0,5.0,96,0.01,,,0.06,158.00,VWS V14.01,2013-04-18 20:00:00,
2013-04-18 16:01:00,63.1,61.9,29.63,SSE,168,6.0,6.0,96,0.01,,,0.06,148.00,VWS V14.01,2013-04-18 20:01:00,
2013-04-18 16:02:00,63.0,61.5,29.62,SE,136,3.0,6.0,95,0.01,,,0.06,162.00,VWS V14.01,2013-04-18 20:02:00,
2013-04-18 16:03:00,63.0,61.5,29.62,SSE,155,3.0,4.0,95,0.01,,,0.06,179.00,VWS V14.01,2013-04-18 20:03:00,
2013-04-18 16:04:00,63.0,61.5,29.62,ESE,123,5.0,6.0,95,0.01,,,0.06,202.00,VWS V14.01,2013-04-18 20:04:00,
2013-04-18 16:05:00,62.9,61.5,29.61,SSE,155,2.0,4.0,95,0.01,,,0.06,190.00,VWS V14.01,2013-04-18 20:05:00,
2013-04-18 16:06:00,62.9,61.5,29.61,SSE,148,2.0,4.0,95,0.01,,,0.06,178.00,VWS V14.01,2013-04-18 20:06:00,
2013-04-18 16:07:00,62.9,61.5,29.61,SSE,153,2.0,4.0,95,0.01,,,0.06,167.00,VWS V14.01,2013-04-18 20:07:00,
2013-04-18 16:08:00,62.9,61.5,29.61,SSE,151,2.0,3.0,95,0.01,,,0.06,155.00,VWS V14.01,2013-04-18 20:08:00,
2013-04-18 16:09:00,63.0,61.8,29.61,South,175,3.0,5.0,96,0.01,,,0.06,139.00,VWS V14.01,2013-04-18 20:09:00,
2013-04-18 16:10:00,62.9,61.5,29.61,SE,132,3.0,5.0,95,0.01,,,0.06,102.00,VWS V14.01,2013-04-18 20:10:00,
2013-04-18 16:11:00,62.9,61.5,29.61,SSE,151,2.0,5.0,95,0.01,,,0.06,74.00,VWS V14.01,2013-04-18 20:11:00,
2013-04-18 16:12:00,62.9,61.5,29.61,SSE,153,4.0,4.0,95,0.01,,,0.06,49.00,VWS V14.01,2013-04-18 20:12:00,
2013-04-18 16:13:00,62.9,61.5,29.62,SSE,155,5.0,5.0,95,0.01,,,0.06,33.00,VWS V14.01,2013-04-18 20:13:00,
2013-04-18 16:14:00,62.8,61.3,29.62,SSE,157,3.0,6.0,95,0.01,,,0.06,33.00,VWS V14.01,2013-04-18 20:14:00,
2013-04-18 16:15:00,62.7,61.2,29.61,SSE,157,1.0,3.0,95,0.01,,,0.06,46.00,VWS V14.01,2013-04-18 20:15:00,
2013-04-18 16:16:00,62.7,61.2,29.61,SSE,157,1.0,3.0,95,0.01,,,0.06,46.00,VWS V14.01,2013-04-18 20:16:00,
2013-04-18 16:17:00,62.6,61.2,29.61,SSE,159,2.0,3.0,95,0.01,,,0.06,49.00,VWS V14.01,2013-04-18 20:17:00,
2013-04-18 16:18:00,62.6,61.2,29.61,SSE,151,3.0,3.0,95,0.01,,,0.06,65.00,VWS V14.01,2013-04-18 20:18:00,
2013-04-18 16:19:00,62.5,61.0,29.61,SSE,150,2.0,4.0,95,0.01,,,0.06,70.00,VWS V14.01,2013-04-18 20:19:00,
2013-04-18 16:20:00,62.5,61.0,29.61,SSE,165,2.0,3.0,95,0.01,,,0.06,76.00,VWS V14.01,2013-04-18 20:20:00,
2013-04-18 16:21:00,62.5,61.0,29.61,SSE,159,1.0,3.0,95,0.01,,,0.06,76.00,VWS V14.01,2013-04-18 20:21:00,
2013-04-18 16:22:00,62.5,61.0,29.61,SE,133,2.0,3.0,95,0.01,,,0.06,74.00,VWS V14.01,2013-04-18 20:22:00,
2013-04-18 16:23:00,62.5,61.0,29.61,SSE,160,4.0,4.0,95,0.01,,,0.06,81.00,VWS V14.01,2013-04-18 20:23:00,
2013-04-18 16:24:00,62.5,61.0,29.61,SSE,151,3.0,5.0,95,0.01,,,0.06,67.00,VWS V14.01,2013-04-18 20:24:00,
2013-04-18 16:25:00,62.5,61.0,29.61,SE,137,4.0,5.0,95,0.01,,,0.06,83.00,VWS V14.01,2013-04-18 20:25:00,
2013-04-18 16:26:00,62.5,61.0,29.61,SE,142,3.0,5.0,95,0.01,,,0.06,83.00,VWS V14.01,2013-04-18 20:26:00,
2013-04-18 16:27:00,62.4,61.0,29.61,SSE,151,3.0,5.0,95,0.01,,,0.06,90.00,VWS V14.01,2013-04-18 20:27:00,
2013-04-18 16:28:00,62.4,61.0,29.61,SSE,157,2.0,5.0,95,0.01,,,0.06,79.00,VWS V14.01,2013-04-18 20:28:00,
2013-04-18 16:29:00,62.4,61.0,29.60,SSE,155,3.0,4.0,95,0.01,,,0.06,86.00,VWS V14.01,2013-04-18 20:29:00,
2013-04-18 16:30:00,62.4,61.0,29.60,SSE,152,3.0,4.0,95,0.01,,,0.06,97.00,VWS V14.01,2013-04-18 20:30:00,
2013-04-18 16:31:00,62.3,60.8,29.60,SSE,152,2.0,4.0,95,0.01,,,0.06,97.00,VWS V14.01,2013-04-18 20:31:00,
2013-04-18 16:32:00,62.3,60.8,29.60,SSE,150,4.0,4.0,95,0.01,,,0.06,102.00,VWS V14.01,2013-04-18 20:32:00,
2013-04-18 16:33:00,62.3,60.8,29.60,SSE,150,4.0,5.0,95,0.01,,,0.06,100.00,VWS V14.01,2013-04-18 20:33:00,
2013-04-18 16:34:00,62.3,60.8,29.60,SSE,150,2.0,5.0,95,0.01,,,0.06,114.00,VWS V14.01,2013-04-18 20:34:00,
2013-04-18 16:35:00,62.3,60.8,29.61,SSE,157,3.0,5.0,95,0.01,,,0.06,125.00,VWS V14.01,2013-04-18 20:35:00,
2013-04-18 16:36:00,62.3,60.8,29.61,SSE,157,5.0,5.0,95,0.01,,,0.06,137.00,VWS V14.01,2013-04-18 20:36:00,
2013-04-18 16:37:00,62.3,60.8,29.61,SSE,149,3.0,5.0,95,0.00,,,0.06,148.00,VWS V14.01,2013-04-18 20:37:00,
2013-04-18 16:38:00,62.3,60.8,29.61,SSE,160,2.0,5.0,95,0.00,,,0.06,149.00,VWS V14.01,2013-04-18 20:38:00,
2013-04-18 16:39:00,62.3,60.8,29.60,SSE,156,3.0,6.0,95,0.00,,,0.06,151.00,VWS V14.01,2013-04-18 20:39:00,
2013-04-18 16:40:00,62.3,60.8,29.61,SE,140,3.0,5.0,95,0.00,,,0.06,153.00,VWS V14.01,2013-04-18 20:40:00,
2013-04-18 16:41:00,62.3,60.8,29.61,ESE,123,3.0,5.0,95,0.00,,,0.06,158.00,VWS V14.01,2013-04-18 20:41:00,
2013-04-18 16:42:00,62.3,60.8,29.60,SE,134,2.0,4.0,95,0.00,,,0.06,171.00,VWS V14.01,2013-04-18 20:42:00,
2013-04-18 16:43:00,62.4,61.0,29.60,SE,139,3.0,4.0,95,0.00,,,0.06,190.00,VWS V14.01,2013-04-18 20:43:00,
2013-04-18 16:44:00,62.4,61.2,29.60,SSE,155,4.0,5.0,96,0.00,,,0.06,204.00,VWS V14.01,2013-04-18 20:44:00,
2013-04-18 16:45:00,62.5,61.3,29.60,SE,146,4.0,4.0,96,0.00,,,0.06,193.00,VWS V14.01,2013-04-18 20:45:00,
2013-04-18 16:46:00,62.5,61.3,29.60,SE,145,4.0,6.0,96,0.00,,,0.06,186.00,VWS V14.01,2013-04-18 20:46:00,
2013-04-18 16:47:00,62.5,61.3,29.60,SE,131,3.0,5.0,96,0.00,,,0.06,171.00,VWS V14.01,2013-04-18 20:47:00,
2013-04-18 16:48:00,62.5,61.0,29.60,SE,145,4.0,4.0,95,0.00,,,0.06,172.00,VWS V14.01,2013-04-18 20:48:00,
2013-04-18 16:49:00,62.6,61.5,29.60,SSE,157,4.0,4.0,96,0.00,,,0.06,176.00,VWS V14.01,2013-04-18 20:49:00,
2013-04-18 16:50:00,62.6,61.5,29.60,SE,131,2.0,3.0,96,0.00,,,0.06,163.00,VWS V14.01,2013-04-18 20:50:00,
2013-04-18 16:51:00,62.7,61.5,29.60,SE,131,2.0,3.0,96,0.00,,,0.06,163.00,VWS V14.01,2013-04-18 20:51:00,
2013-04-18 16:52:00,62.7,61.5,29.60,SSE,147,4.0,4.0,96,0.00,,,0.06,188.00,VWS V14.01,2013-04-18 20:52:00,
2013-04-18 16:53:00,62.7,61.5,29.60,SSE,153,3.0,6.0,96,0.00,,,0.06,172.00,VWS V14.01,2013-04-18 20:53:00,
2013-04-18 16:54:00,62.6,61.2,29.60,SE,140,4.0,4.0,95,0.00,,,0.06,158.00,VWS V14.01,2013-04-18 20:54:00,
2013-04-18 16:55:00,62.5,61.3,29.60,SE,137,3.0,5.0,96,0.00,,,0.06,123.00,VWS V14.01,2013-04-18 20:55:00,
2013-04-18 16:56:00,62.5,61.0,29.60,SE,141,4.0,6.0,95,0.00,,,0.06,123.00,VWS V14.01,2013-04-18 20:56:00,
2013-04-18 16:57:00,62.5,61.0,29.60,SE,131,3.0,6.0,95,0.00,,,0.06,97.00,VWS V14.01,2013-04-18 20:57:00,
2013-04-18 16:58:00,62.4,61.0,29.60,SSE,150,4.0,4.0,95,0.00,,,0.06,72.00,VWS V14.01,2013-04-18 20:58:00,
2013-04-18 16:59:00,62.4,61.0,29.60,SSE,151,2.0,4.0,95,0.00,,,0.06,69.00,VWS V14.01,2013-04-18 20:59:00,
2013-04-18 17:00:00,62.3,60.8,29.59,SSE,149,3.0,4.0,95,0.00,,,0.06,65.00,VWS V14.01,2013-04-18 21:00:00,
2013-04-18 17:01:00,62.3,60.8,29.59,SSE,148,4.0,4.0,95,0.00,,,0.06,65.00,VWS V14.01,2013-04-18 21:01:00,
2013-04-18 17:02:00,62.2,60.8,29.60,SE,142,2.0,5.0,95,0.00,,,0.06,67.00,VWS V14.01,2013-04-18 21:02:00,
2013-04-18 17:03:00,62.2,60.8,29.60,SSE,153,2.0,5.0,95,0.00,,,0.06,72.00,VWS V14.01,2013-04-18 21:03:00,
2013-04-18 17:04:00,62.2,60.8,29.60,SSE,148,3.0,4.0,95,0.00,,,0.06,74.00,VWS V14.01,2013-04-18 21:04:00,
2013-04-18 17:05:00,62.1,60.7,29.60,SSE,153,4.0,5.0,95,0.00,,,0.06,69.00,VWS V14.01,2013-04-18 21:05:00,
2013-04-18 17:06:00,62.1,60.7,29.60,SSE,148,2.0,5.0,95,0.00,,,0.06,56.00,VWS V14.01,2013-04-18 21:06:00,
2013-04-18 17:07:00,62.1,60.7,29.61,SSE,158,3.0,4.0,95,0.00,,,0.06,54.00,VWS V14.01,2013-04-18 21:07:00,
2013-04-18 17:08:00,62.0,60.6,29.61,SSE,165,2.0,4.0,95,0.00,,,0.06,47.00,VWS V14.01,2013-04-18 21:08:00,
2013-04-18 17:09:00,62.0,60.6,29.61,SE,140,3.0,4.0,95,0.00,,,0.06,54.00,VWS V14.01,2013-04-18 21:09:00,
2013-04-18 17:10:00,62.0,60.6,29.61,SSE,157,3.0,4.0,95,0.00,,,0.06,63.00,VWS V14.01,2013-04-18 21:10:00,
2013-04-18 17:11:00,62.0,60.6,29.61,SSE,153,3.0,4.0,95,0.00,,,0.06,58.00,VWS V14.01,2013-04-18 21:11:00,
2013-04-18 17:12:00,61.9,60.5,29.61,SSE,153,4.0,5.0,95,0.00,,,0.06,62.00,VWS V14.01,2013-04-18 21:12:00,
2013-04-18 17:13:00,61.9,60.5,29.61,SSE,155,4.0,4.0,95,0.00,,,0.06,63.00,VWS V14.01,2013-04-18 21:13:00,
2013-04-18 17:14:00,61.9,60.5,29.61,SSE,155,3.0,6.0,95,0.00,,,0.06,63.00,VWS V14.01,2013-04-18 21:14:00,
2013-04-18 17:15:00,61.8,60.4,29.62,SSE,156,3.0,4.0,95,0.00,,,0.06,49.00,VWS V14.01,2013-04-18 21:15:00,
2013-04-18 17:16:00,61.8,60.4,29.62,SSE,156,3.0,4.0,95,0.00,,,0.06,46.00,VWS V14.01,2013-04-18 21:16:00,
2013-04-18 17:17:00,61.8,60.4,29.62,SSE,150,4.0,5.0,95,0.00,,,0.06,42.00,VWS V14.01,2013-04-18 21:17:00,
2013-04-18 17:18:00,61.8,60.4,29.62,SSE,153,4.0,4.0,95,0.00,,,0.06,42.00,VWS V14.01,2013-04-18 21:18:00,
2013-04-18 17:19:00,61.7,60.5,29.62,SSE,157,4.0,6.0,96,0.00,,,0.06,49.00,VWS V14.01,2013-04-18 21:19:00,
2013-04-18 17:20:00,61.7,60.3,29.62,ESE,121,3.0,5.0,95,0.00,,,0.06,56.00,VWS V14.01,2013-04-18 21:20:00,
2013-04-18 17:21:00,61.7,60.3,29.62,SE,144,5.0,5.0,95,0.00,,,0.06,56.00,VWS V14.01,2013-04-18 21:21:00,
2013-04-18 17:22:00,61.6,60.5,29.62,SSE,165,4.0,5.0,96,0.00,,,0.06,54.00,VWS V14.01,2013-04-18 21:22:00,
2013-04-18 17:23:00,61.6,60.2,29.62,SSE,148,5.0,8.0,95,0.00,,,0.06,46.00,VWS V14.01,2013-04-18 21:23:00,
2013-04-18 17:24:00,61.6,60.2,29.62,SE,143,3.0,6.0,95,0.00,,,0.06,39.00,VWS V14.01,2013-04-18 21:24:00,
2013-04-18 17:25:00,61.5,60.1,29.62,SE,144,4.0,4.0,95,0.00,,,0.06,39.00,VWS V14.01,2013-04-18 21:25:00,
2013-04-18 17:26:00,61.5,60.1,29.62,ESE,120,3.0,4.0,95,0.00,,,0.06,39.00,VWS V14.01,2013-04-18 21:26:00,
2013-04-18 17:27:00,61.4,60.0,29.62,SSE,155,5.0,6.0,95,0.00,,,0.06,42.00,VWS V14.01,2013-04-18 21:27:00,
2013-04-18 17:28:00,61.4,60.0,29.62,SSE,153,2.0,6.0,95,0.00,,,0.06,46.00,VWS V14.01,2013-04-18 21:28:00,
2013-04-18 17:29:00,61.4,60.0,29.61,SE,140,2.0,4.0,95,0.00,,,0.06,49.00,VWS V14.01,2013-04-18 21:29:00,
2013-04-18 17:30:00,61.4,60.0,29.61,SE,142,2.0,4.0,95,0.00,,,0.06,60.00,VWS V14.01,2013-04-18 21:30:00,
2013-04-18 17:31:00,61.4,60.0,29.61,SSE,165,4.0,4.0,95,0.00,,,0.06,60.00,VWS V14.01,2013-04-18 21:31:00,
2013-04-18 17:32:00,61.3,60.2,29.61,SSE,157,4.0,5.0,96,0.00,,,0.06,56.00,VWS V14.01,2013-04-18 21:32:00,
2013-04-18 17:33:00,61.3,60.2,29.61,SE,133,2.0,5.0,96,0.00,,,0.06,53.00,VWS V14.01,2013-04-18 21:33:00,
2013-04-18 17:34:00,61.3,60.2,29.61,SSE,152,4.0,5.0,96,0.00,,,0.06,58.00,VWS V14.01,2013-04-18 21:34:00,
2013-04-18 17:35:00,61.3,60.2,29.61,SE,143,2.0,3.0,96,0.00,,,0.06,53.00,VWS V14.01,2013-04-18 21:35:00,
2013-04-18 17:36:00,61.3,60.2,29.61,ESE,122,2.0,3.0,96,0.00,,,0.06,53.00,VWS V14.01,2013-04-18 21:36:00,
2013-04-18 17:37:00,61.3,60.2,29.61,SSE,165,5.0,7.0,96,0.00,,,0.06,53.00,VWS V14.01,2013-04-18 21:37:00,
2013-04-18 17:38:00,61.3,60.2,29.61,SSE,149,4.0,5.0,96,0.00,,,0.06,46.00,VWS V14.01,2013-04-18 21:38:00,
2013-04-18 17:39:00,61.3,60.2,29.61,SE,135,3.0,5.0,96,0.00,,,0.06,51.00,VWS V14.01,2013-04-18 21:39:00,
2013-04-18 17:40:00,61.2,60.0,29.60,SSE,155,5.0,5.0,96,0.00,,,0.06,53.00,VWS V14.01,2013-04-18 21:40:00,
2013-04-18 17:41:00,61.2,60.0,29.60,SSE,155,3.0,5.0,96,0.00,,,0.06,51.00,VWS V14.01,2013-04-18 21:41:00,
2013-04-18 17:42:00,61.2,60.0,29.60,SE,143,3.0,7.0,96,0.00,,,0.06,46.00,VWS V14.01,2013-04-18 21:42:00,
2013-04-18 17:43:00,61.2,60.0,29.60,SSE,152,5.0,5.0,96,0.00,,,0.06,39.00,VWS V14.01,2013-04-18 21:43:00,
2013-04-18 17:44:00,61.2,60.0,29.60,SSE,153,3.0,5.0,96,0.00,,,0.06,42.00,VWS V14.01,2013-04-18 21:44:00,
2013-04-18 17:45:00,61.2,60.0,29.60,SE,139,4.0,4.0,96,0.00,,,0.06,56.00,VWS V14.01,2013-04-18 21:45:00,
2013-04-18 17:46:00,61.1,60.0,29.60,SSE,150,3.0,4.0,96,0.00,,,0.06,51.00,VWS V14.01,2013-04-18 21:46:00,
2013-04-18 17:47:00,61.1,60.0,29.60,SSE,152,4.0,5.0,96,0.00,,,0.06,53.00,VWS V14.01,2013-04-18 21:47:00,
2013-04-18 17:48:00,61.1,60.0,29.60,SSE,149,3.0,4.0,96,0.00,,,0.06,56.00,VWS V14.01,2013-04-18 21:48:00,
2013-04-18 17:49:00,61.1,60.0,29.60,SSE,150,2.0,4.0,96,0.00,,,0.06,65.00,VWS V14.01,2013-04-18 21:49:00,
2013-04-18 17:50:00,61.1,60.0,29.60,SSE,153,4.0,5.0,96,0.00,,,0.06,58.00,VWS V14.01,2013-04-18 21:50:00,
2013-04-18 17:51:00,61.1,60.0,29.60,SE,141,3.0,5.0,96,0.00,,,0.06,53.00,VWS V14.01,2013-04-18 21:51:00,
2013-04-18 17:52:00,61.1,60.0,29.60,SSE,157,3.0,4.0,96,0.00,,,0.06,60.00,VWS V14.01,2013-04-18 21:52:00,
2013-04-18 17:53:00,61.1,60.0,29.60,SE,146,2.0,5.0,96,0.00,,,0.06,62.00,VWS V14.01,2013-04-18 21:53:00,
2013-04-18 17:54:00,61.0,59.8,29.60,SSE,148,4.0,4.0,96,0.00,,,0.06,56.00,VWS V14.01,2013-04-18 21:54:00,
2013-04-18 17:55:00,61.0,59.9,29.60,SSE,149,3.0,4.0,96,0.00,,,0.06,53.00,VWS V14.01,2013-04-18 21:55:00,
2013-04-18 17:56:00,61.0,59.8,29.60,SSE,149,2.0,4.0,96,0.00,,,0.06,56.00,VWS V14.01,2013-04-18 21:56:00,
2013-04-18 17:57:00,61.0,59.8,29.59,SSE,151,3.0,3.0,96,0.00,,,0.06,62.00,VWS V14.01,2013-04-18 21:57:00,
2013-04-18 17:58:00,61.0,59.8,29.59,SSE,152,2.0,3.0,96,0.00,,,0.06,60.00,VWS V14.01,2013-04-18 21:58:00,
2013-04-18 17:59:00,61.0,59.8,29.59,SSE,157,3.0,5.0,96,0.00,,,0.06,53.00,VWS V14.01,2013-04-18 21:59:00,
2013-04-18 18:00:00,60.9,59.8,29.60,SSE,153,2.0,5.0,96,0.00,,,0.06,40.00,VWS V14.01,2013-04-18 22:00:00,
2013-04-18 18:01:00,60.9,59.8,29.60,SSE,153,4.0,5.0,96,0.00,,,0.06,40.00,VWS V14.01,2013-04-18 22:01:00,
2013-04-18 18:02:00,60.9,59.8,29.60,SE,139,2.0,5.0,96,0.00,,,0.06,49.00,VWS V14.01,2013-04-18 22:02:00,
2013-04-18 18:03:00,60.9,59.8,29.60,SSE,149,2.0,3.0,96,0.00,,,0.06,47.00,VWS V14.01,2013-04-18 22:03:00,
2013-04-18 18:04:00,60.9,59.8,29.60,SSE,147,5.0,5.0,96,0.00,,,0.06,47.00,VWS V14.01,2013-04-18 22:04:00,
2013-04-18 18:05:00,60.9,59.8,29.61,SSE,147,3.0,4.0,96,0.00,,,0.06,23.00,VWS V14.01,2013-04-18 22:05:00,
2013-04-18 18:06:00,60.9,59.8,29.61,SSE,147,2.0,4.0,96,0.00,,,0.06,23.00,VWS V14.01,2013-04-18 22:06:00,
2013-04-18 18:07:00,60.9,59.8,29.61,SSE,147,2.0,3.0,96,0.00,,,0.06,33.00,VWS V14.01,2013-04-18 22:07:00,
2013-04-18 18:08:00,60.9,59.8,29.61,SSE,147,2.0,2.0,96,0.00,,,0.06,40.00,VWS V14.01,2013-04-18 22:08:00,
2013-04-18 18:09:00,60.9,59.8,29.61,SSE,149,4.0,4.0,96,0.00,,,0.06,39.00,VWS V14.01,2013-04-18 22:09:00,
2013-04-18 18:10:00,60.8,59.7,29.61,SE,136,2.0,5.0,96,0.00,,,0.06,33.00,VWS V14.01,2013-04-18 22:10:00,
2013-04-18 18:11:00,60.8,59.7,29.61,SE,143,3.0,5.0,96,0.00,,,0.06,32.00,VWS V14.01,2013-04-18 22:11:00,
2013-04-18 18:12:00,60.8,59.7,29.61,SE,136,2.0,4.0,96,0.00,,,0.06,33.00,VWS V14.01,2013-04-18 22:12:00,
2013-04-18 18:13:00,60.8,59.7,29.60,SE,143,2.0,3.0,96,0.00,,,0.06,33.00,VWS V14.01,2013-04-18 22:13:00,
2013-04-18 18:14:00,60.8,59.7,29.60,SSE,153,2.0,3.0,96,0.00,,,0.06,30.00,VWS V14.01,2013-04-18 22:14:00,
2013-04-18 18:15:00,60.7,59.6,29.61,SSE,147,2.0,6.0,96,0.00,,,0.06,28.00,VWS V14.01,2013-04-18 22:15:00,
2013-04-18 18:16:00,60.7,59.6,29.61,SSE,149,2.0,6.0,96,0.00,,,0.06,28.00,VWS V14.01,2013-04-18 22:16:00,
2013-04-18 18:17:00,60.7,59.6,29.61,SSE,148,3.0,4.0,96,0.00,,,0.06,28.00,VWS V14.01,2013-04-18 22:17:00,
2013-04-18 18:18:00,60.7,59.6,29.60,SSE,148,2.0,3.0,96,0.00,,,0.06,26.00,VWS V14.01,2013-04-18 22:18:00,
2013-04-18 18:19:00,60.6,59.5,29.60,SE,142,2.0,4.0,96,0.00,,,0.06,26.00,VWS V14.01,2013-04-18 22:19:00,
2013-04-18 18:20:00,60.6,59.5,29.61,SSE,147,2.0,3.0,96,0.00,,,0.06,23.00,VWS V14.01,2013-04-18 22:20:00,
2013-04-18 18:21:00,60.6,59.5,29.61,SE,140,2.0,3.0,96,0.00,,,0.06,25.00,VWS V14.01,2013-04-18 22:21:00,
2013-04-18 18:22:00,60.6,59.5,29.61,SSE,150,2.0,3.0,96,0.00,,,0.06,25.00,VWS V14.01,2013-04-18 22:22:00,
2013-04-18 18:23:00,60.6,59.5,29.61,SE,127,4.0,4.0,96,0.00,,,0.06,25.00,VWS V14.01,2013-04-18 22:23:00,
2013-04-18 18:24:00,60.6,59.5,29.61,SE,145,2.0,4.0,96,0.00,,,0.06,25.00,VWS V14.01,2013-04-18 22:24:00,
2013-04-18 18:25:00,60.5,59.4,29.61,SSE,148,2.0,3.0,96,0.00,,,0.06,25.00,VWS V14.01,2013-04-18 22:25:00,
2013-04-18 18:26:00,60.5,59.4,29.61,SSE,148,2.0,3.0,96,0.00,,,0.06,26.00,VWS V14.01,2013-04-18 22:26:00,
2013-04-18 18:27:00,60.5,59.4,29.61,SE,144,3.0,3.0,96,0.00,,,0.06,26.00,VWS V14.01,2013-04-18 22:27:00,
2013-04-18 18:28:00,60.5,59.4,29.61,SSE,148,3.0,5.0,96,0.00,,,0.06,26.00,VWS V14.01,2013-04-18 22:28:00,
2013-04-18 18:29:00,60.5,59.4,29.61,SE,138,2.0,3.0,96,0.00,,,0.06,26.00,VWS V14.01,2013-04-18 22:29:00,
2013-04-18 18:30:00,60.5,59.4,29.60,SE,144,2.0,3.0,96,0.00,,,0.06,25.00,VWS V14.01,2013-04-18 22:30:00,
2013-04-18 18:31:00,60.5,59.4,29.60,SE,144,2.0,3.0,96,0.00,,,0.06,25.00,VWS V14.01,2013-04-18 22:31:00,
2013-04-18 18:32:00,60.4,59.3,29.60,SE,131,3.0,4.0,96,0.00,,,0.06,25.00,VWS V14.01,2013-04-18 22:32:00,
2013-04-18 18:33:00,60.4,59.3,29.59,ESE,121,4.0,4.0,96,0.00,,,0.06,25.00,VWS V14.01,2013-04-18 22:33:00,
2013-04-18 18:34:00,60.4,59.3,29.59,ESE,121,2.0,5.0,96,0.00,,,0.06,25.00,VWS V14.01,2013-04-18 22:34:00,
2013-04-18 18:35:00,60.4,59.3,29.59,ESE,123,2.0,3.0,96,0.00,,,0.06,25.00,VWS V14.01,2013-04-18 22:35:00,
2013-04-18 18:36:00,60.4,59.3,29.59,ESE,123,3.0,3.0,96,0.00,,,0.06,25.00,VWS V14.01,2013-04-18 22:36:00,
2013-04-18 18:37:00,60.4,59.3,29.59,ESE,123,1.0,3.0,96,0.00,,,0.06,26.00,VWS V14.01,2013-04-18 22:37:00,
2013-04-18 18:38:00,60.3,59.2,29.59,ESE,123,3.0,3.0,96,0.00,,,0.06,26.00,VWS V14.01,2013-04-18 22:38:00,
2013-04-18 18:39:00,60.3,59.2,29.59,ESE,123,2.0,4.0,96,0.00,,,0.06,26.00,VWS V14.01,2013-04-18 22:39:00,
2013-04-18 18:40:00,60.3,59.2,29.59,SE,134,2.0,3.0,96,0.00,,,0.06,26.00,VWS V14.01,2013-04-18 22:40:00,
2013-04-18 18:41:00,60.3,59.2,29.59,SE,134,2.0,3.0,96,0.00,,,0.06,26.00,VWS V14.01,2013-04-18 22:41:00,
2013-04-18 18:42:00,60.2,59.1,29.59,SE,130,4.0,7.0,96,0.00,,,0.06,26.00,VWS V14.01,2013-04-18 22:42:00,
2013-04-18 18:43:00,60.3,59.2,29.58,SE,133,3.0,5.0,96,0.00,,,0.06,28.00,VWS V14.01,2013-04-18 22:43:00,
2013-04-18 18:44:00,60.3,59.2,29.58,SE,146,2.0,3.0,96,0.00,,,0.06,28.00,VWS V14.01,2013-04-18 22:44:00,
2013-04-18 18:45:00,60.2,59.3,29.58,SSE,148,1.0,2.0,97,0.00,,,0.06,28.00,VWS V14.01,2013-04-18 22:45:00,
2013-04-18 18:46:00,60.2,59.3,29.58,SSE,148,2.0,2.0,97,0.00,,,0.06,28.00,VWS V14.01,2013-04-18 22:46:00,
2013-04-18 18:47:00,60.2,59.3,29.58,SE,130,3.0,4.0,97,0.00,,,0.06,26.00,VWS V14.01,2013-04-18 22:47:00,
2013-04-18 18:48:00,60.2,59.3,29.58,SE,130,2.0,3.0,97,0.00,,,0.06,26.00,VWS V14.01,2013-04-18 22:48:00,
2013-04-18 18:49:00,60.2,59.3,29.58,SE,130,2.0,3.0,97,0.00,,,0.06,26.00,VWS V14.01,2013-04-18 22:49:00,
2013-04-18 18:50:00,60.2,59.3,29.58,SE,130,3.0,3.0,97,0.00,,,0.06,26.00,VWS V14.01,2013-04-18 22:50:00,
2013-04-18 18:51:00,60.2,59.3,29.58,SE,130,3.0,3.0,97,0.00,,,0.06,26.00,VWS V14.01,2013-04-18 22:51:00,
2013-04-18 18:52:00,60.2,59.3,29.58,SSE,148,2.0,3.0,97,0.00,,,0.06,26.00,VWS V14.01,2013-04-18 22:52:00,
2013-04-18 18:53:00,60.2,59.3,29.59,SSE,148,1.0,4.0,97,0.01,,,0.07,26.00,VWS V14.01,2013-04-18 22:53:00,
2013-04-18 18:54:00,60.2,59.3,29.58,ESE,121,2.0,4.0,97,0.01,,,0.07,26.00,VWS V14.01,2013-04-18 22:54:00,
2013-04-18 18:55:00,60.2,59.3,29.59,SE,130,2.0,3.0,97,0.01,,,0.07,23.00,VWS V14.01,2013-04-18 22:55:00,
2013-04-18 18:56:00,60.1,59.2,29.59,SE,136,3.0,3.0,97,0.01,,,0.07,21.00,VWS V14.01,2013-04-18 22:56:00,
2013-04-18 18:57:00,60.1,59.2,29.59,SE,136,1.0,3.0,97,0.01,,,0.07,19.00,VWS V14.01,2013-04-18 22:57:00,
2013-04-18 18:58:00,60.1,59.2,29.59,SE,136,1.0,3.0,97,0.01,,,0.07,19.00,VWS V14.01,2013-04-18 22:58:00,
2013-04-18 18:59:00,60.1,59.2,29.59,SSE,148,3.0,5.0,97,0.01,,,0.07,18.00,VWS V14.01,2013-04-18 22:59:00,
2013-04-18 19:00:00,60.1,59.2,29.59,SE,134,2.0,3.0,97,0.01,,,0.07,16.00,VWS V14.01,2013-04-18 23:00:00,
2013-04-18 19:01:00,60.1,59.2,29.59,SE,134,2.0,3.0,97,0.01,,,0.07,14.00,VWS V14.01,2013-04-18 23:01:00,
2013-04-18 19:02:00,60.1,59.2,29.60,SE,142,4.0,4.0,97,0.01,,,0.07,14.00,VWS V14.01,2013-04-18 23:02:00,
2013-04-18 19:03:00,60.1,59.2,29.60,SE,125,4.0,4.0,97,0.01,,,0.07,14.00,VWS V14.01,2013-04-18 23:03:00,
2013-04-18 19:04:00,60.1,59.2,29.60,SE,138,2.0,4.0,97,0.01,,,0.07,14.00,VWS V14.01,2013-04-18 23:04:00,
2013-04-18 19:05:00,60.1,59.2,29.61,SE,145,3.0,4.0,97,0.01,,,0.07,12.00,VWS V14.01,2013-04-18 23:05:00,
2013-04-18 19:06:00,60.1,59.2,29.61,SE,140,3.0,4.0,97,0.01,,,0.07,12.00,VWS V14.01,2013-04-18 23:06:00,
2013-04-18 19:07:00,60.1,59.2,29.61,SE,130,4.0,4.0,97,0.01,,,0.07,12.00,VWS V14.01,2013-04-18 23:07:00,
2013-04-18 19:08:00,60.1,59.2,29.61,SE,130,4.0,4.0,97,0.01,,,0.07,12.00,VWS V14.01,2013-04-18 23:08:00,
2013-04-18 19:09:00,60.1,59.2,29.61,SE,142,4.0,8.0,97,0.01,,,0.07,12.00,VWS V14.01,2013-04-18 23:09:00,
2013-04-18 19:10:00,60.1,59.2,29.61,SE,142,3.0,5.0,97,0.01,,,0.07,11.00,VWS V14.01,2013-04-18 23:10:00,
2013-04-18 19:11:00,60.1,59.2,29.61,SE,144,2.0,5.0,97,0.01,,,0.07,11.00,VWS V14.01,2013-04-18 23:11:00,
2013-04-18 19:12:00,60.1,59.2,29.61,SE,124,5.0,5.0,97,0.01,,,0.07,11.00,VWS V14.01,2013-04-18 23:12:00,
2013-04-18 19:13:00,60.1,59.2,29.61,SE,129,2.0,7.0,97,0.01,,,0.07,11.00,VWS V14.01,2013-04-18 23:13:00,
2013-04-18 19:14:00,60.1,59.2,29.61,SSE,148,3.0,6.0,97,0.01,,,0.07,11.00,VWS V14.01,2013-04-18 23:14:00,
2013-04-18 19:15:00,60.1,59.2,29.61,SE,142,3.0,4.0,97,0.01,,,0.07,12.00,VWS V14.01,2013-04-18 23:15:00,
2013-04-18 19:16:00,60.1,59.2,29.61,SE,136,2.0,4.0,97,0.01,,,0.07,12.00,VWS V14.01,2013-04-18 23:16:00,
2013-04-18 19:17:00,60.1,59.2,29.60,SSE,148,3.0,7.0,97,0.01,,,0.07,12.00,VWS V14.01,2013-04-18 23:17:00,
2013-04-18 19:18:00,60.1,59.2,29.61,SE,140,4.0,6.0,97,0.01,,,0.07,12.00,VWS V14.01,2013-04-18 23:18:00,
2013-04-18 19:19:00,60.1,59.2,29.61,SSE,148,5.0,7.0,97,0.01,,,0.07,12.00,VWS V14.01,2013-04-18 23:19:00,
2013-04-18 19:20:00,60.1,59.2,29.61,SE,146,3.0,5.0,97,0.01,,,0.07,12.00,VWS V14.01,2013-04-18 23:20:00,
2013-04-18 19:21:00,60.1,59.2,29.61,ESE,112,5.0,5.0,97,0.01,,,0.07,12.00,VWS V14.01,2013-04-18 23:21:00,
2013-04-18 19:22:00,60.1,59.2,29.61,SE,134,4.0,5.0,97,0.01,,,0.07,11.00,VWS V14.01,2013-04-18 23:22:00,
2013-04-18 19:23:00,60.1,59.2,29.60,SE,132,4.0,5.0,97,0.01,,,0.07,9.00,VWS V14.01,2013-04-18 23:23:00,
2013-04-18 19:24:00,60.1,59.2,29.60,SE,140,5.0,7.0,97,0.01,,,0.07,7.00,VWS V14.01,2013-04-18 23:24:00,
2013-04-18 19:25:00,60.1,59.2,29.60,SE,144,3.0,3.0,97,0.01,,,0.07,7.00,VWS V14.01,2013-04-18 23:25:00,
2013-04-18 19:26:00,60.1,59.2,29.60,SE,138,3.0,4.0,97,0.01,,,0.07,7.00,VWS V14.01,2013-04-18 23:26:00,
2013-04-18 19:27:00,60.1,59.2,29.60,SE,135,4.0,6.0,97,0.01,,,0.07,7.00,VWS V14.01,2013-04-18 23:27:00,
2013-04-18 19:28:00,60.1,59.2,29.60,SE,135,3.0,7.0,97,0.01,,,0.07,5.00,VWS V14.01,2013-04-18 23:28:00,
2013-04-18 19:29:00,60.1,59.2,29.60,SE,128,5.0,5.0,97,0.01,,,0.07,5.00,VWS V14.01,2013-04-18 23:29:00,
2013-04-18 19:30:00,60.1,59.2,29.60,SE,135,4.0,4.0,97,0.01,,,0.07,5.00,VWS V14.01,2013-04-18 23:30:00,
2013-04-18 19:31:00,60.1,59.2,29.60,SE,143,3.0,4.0,97,0.01,,,0.07,5.00,VWS V14.01,2013-04-18 23:31:00,
2013-04-18 19:32:00,60.1,59.2,29.60,SE,129,4.0,4.0,97,0.01,,,0.07,5.00,VWS V14.01,2013-04-18 23:32:00,
2013-04-18 19:33:00,60.1,59.2,29.60,SE,140,3.0,9.0,97,0.01,,,0.07,5.00,VWS V14.01,2013-04-18 23:33:00,
2013-04-18 19:34:00,60.0,59.2,29.60,SE,128,4.0,4.0,97,0.01,,,0.07,5.00,VWS V14.01,2013-04-18 23:34:00,
2013-04-18 19:35:00,60.0,59.2,29.59,SE,130,3.0,4.0,97,0.01,,,0.07,0.00,VWS V14.01,2013-04-18 23:35:00,
2013-04-18 19:36:00,60.0,59.2,29.59,SE,141,3.0,4.0,97,0.01,,,0.07,0.00,VWS V14.01,2013-04-18 23:36:00,
2013-04-18 19:37:00,60.0,59.2,29.59,SE,145,6.0,6.0,97,0.01,,,0.07,0.00,VWS V14.01,2013-04-18 23:37:00,
2013-04-18 19:38:00,60.0,59.2,29.59,SE,130,3.0,6.0,97,0.01,,,0.07,0.00,VWS V14.01,2013-04-18 23:38:00,
2013-04-18 19:39:00,60.0,59.2,29.59,ESE,115,4.0,10.0,97,0.01,,,0.07,0.00,VWS V14.01,2013-04-18 23:39:00,
2013-04-18 19:40:00,60.0,59.2,29.58,SE,126,7.0,9.0,97,0.01,,,0.07,0.00,VWS V14.01,2013-04-18 23:40:00,
2013-04-18 19:41:00,60.0,59.2,29.58,ESE,117,5.0,9.0,97,0.01,,,0.07,0.00,VWS V14.01,2013-04-18 23:41:00,
2013-04-18 19:42:00,60.0,59.2,29.58,SE,124,7.0,10.0,97,0.01,,,0.07,0.00,VWS V14.01,2013-04-18 23:42:00,
2013-04-18 19:43:00,60.0,59.2,29.58,SE,127,6.0,7.0,97,0.01,,,0.07,0.00,VWS V14.01,2013-04-18 23:43:00,
2013-04-18 19:44:00,60.0,59.2,29.58,SE,126,7.0,8.0,97,0.01,,,0.07,0.00,VWS V14.01,2013-04-18 23:44:00,
2013-04-18 19:45:00,60.0,59.2,29.57,ESE,121,8.0,8.0,97,0.01,,,0.07,0.00,VWS V14.01,2013-04-18 23:45:00,
2013-04-18 19:46:00,60.0,59.2,29.57,SE,125,7.0,8.0,97,0.01,,,0.07,0.00,VWS V14.01,2013-04-18 23:46:00,
2013-04-18 19:47:00,60.0,59.2,29.57,SE,128,8.0,8.0,97,0.01,,,0.07,0.00,VWS V14.01,2013-04-18 23:47:00,
2013-04-18 19:48:00,60.0,59.2,29.57,SE,130,7.0,8.0,97,0.01,,,0.07,0.00,VWS V14.01,2013-04-18 23:48:00,
2013-04-18 19:49:00,60.0,59.2,29.57,ESE,121,7.0,9.0,97,0.01,,,0.07,0.00,VWS V14.01,2013-04-18 23:49:00,
2013-04-18 19:50:00,60.0,59.2,29.56,ESE,116,8.0,9.0,97,0.01,,,0.07,0.00,VWS V14.01,2013-04-18 23:50:00,
2013-04-18 19:51:00,60.0,59.2,29.56,ESE,116,7.0,9.0,97,0.01,,,0.07,0.00,VWS V14.01,2013-04-18 23:51:00,
2013-04-18 19:52:00,59.9,59.0,29.55,ESE,108,8.0,10.0,97,0.01,,,0.07,0.00,VWS V14.01,2013-04-18 23:52:00,
2013-04-18 19:53:00,59.9,59.0,29.55,ESE,115,7.0,9.0,97,0.01,,,0.07,0.00,VWS V14.01,2013-04-18 23:53:00,
2013-04-18 19:54:00,59.9,59.0,29.55,ESE,115,8.0,8.0,97,0.00,,,0.07,0.00,VWS V14.01,2013-04-18 23:54:00,
2013-04-18 19:55:00,59.9,59.0,29.55,SE,126,6.0,8.0,97,0.00,,,0.07,0.00,VWS V14.01,2013-04-18 23:55:00,
2013-04-18 19:56:00,59.9,59.0,29.55,ESE,117,8.0,9.0,97,0.00,,,0.07,0.00,VWS V14.01,2013-04-18 23:56:00,
2013-04-18 19:57:00,59.9,59.0,29.55,SE,126,6.0,8.0,97,0.00,,,0.07,0.00,VWS V14.01,2013-04-18 23:57:00,
2013-04-18 19:58:00,59.9,59.0,29.55,ESE,117,7.0,8.0,97,0.00,,,0.07,0.00,VWS V14.01,2013-04-18 23:58:00,
2013-04-18 19:59:00,59.9,59.0,29.55,ESE,115,9.0,9.0,97,0.00,,,0.07,0.00,VWS V14.01,2013-04-18 23:59:00,
2013-04-18 20:00:00,59.9,59.0,29.54,East,99,8.0,9.0,97,0.00,,,0.07,0.00,VWS V14.01,2013-04-19 00:00:00,
2013-04-18 20:01:00,59.8,59.0,29.54,East,101,9.0,10.0,97,0.00,,,0.07,0.00,VWS V14.01,2013-04-19 00:01:00,
2013-04-18 20:02:00,59.9,59.0,29.54,ESE,114,9.0,13.0,97,0.00,,,0.07,0.00,VWS V14.01,2013-04-19 00:02:00,
2013-04-18 20:03:00,59.8,59.0,29.54,ESE,111,10.0,10.0,97,0.00,,,0.07,0.00,VWS V14.01,2013-04-19 00:03:00,
2013-04-18 20:04:00,59.8,59.0,29.54,East,98,11.0,13.0,97,0.00,,,0.07,0.00,VWS V14.01,2013-04-19 00:04:00,
2013-04-18 20:05:00,59.8,59.0,29.53,ESE,120,13.0,13.0,97,0.00,,,0.07,0.00,VWS V14.01,2013-04-19 00:05:00,
2013-04-18 20:06:00,59.8,59.0,29.53,ESE,111,11.0,13.0,97,0.00,,,0.07,0.00,VWS V14.01,2013-04-19 00:06:00,
2013-04-18 20:07:00,59.8,59.0,29.54,ESE,107,11.0,13.0,97,0.00,,,0.07,0.00,VWS V14.01,2013-04-19 00:07:00,
2013-04-18 20:08:00,59.8,59.0,29.54,ESE,115,10.0,13.0,97,0.00,,,0.07,0.00,VWS V14.01,2013-04-19 00:08:00,
2013-04-18 20:09:00,59.8,59.0,29.53,ESE,118,9.0,10.0,97,0.00,,,0.07,0.00,VWS V14.01,2013-04-19 00:09:00,
2013-04-18 20:10:00,59.8,59.0,29.53,ESE,105,9.0,13.0,97,0.00,,,0.07,0.00,VWS V14.01,2013-04-19 00:10:00,
2013-04-18 20:11:00,59.8,59.0,29.53,East,93,9.0,13.0,97,0.00,,,0.07,0.00,VWS V14.01,2013-04-19 00:11:00,
2013-04-18 20:12:00,59.8,59.0,29.53,ESE,118,9.0,13.0,97,0.00,,,0.07,0.00,VWS V14.01,2013-04-19 00:12:00,
2013-04-18 20:13:00,59.8,59.0,29.53,ESE,122,8.0,10.0,97,0.00,,,0.07,0.00,VWS V14.01,2013-04-19 00:13:00,
2013-04-18 20:14:00,59.8,59.0,29.53,ESE,113,10.0,13.0,97,0.00,,,0.07,0.00,VWS V14.01,2013-04-19 00:14:00,
2013-04-18 20:15:00,59.8,59.0,29.53,ESE,105,10.0,12.0,97,0.00,,,0.07,0.00,VWS V14.01,2013-04-19 00:15:00,
2013-04-18 20:16:00,59.8,59.0,29.53,ESE,108,11.0,13.0,97,0.00,,,0.07,0.00,VWS V14.01,2013-04-19 00:16:00,
2013-04-18 20:17:00,59.8,59.0,29.53,ESE,112,9.0,11.0,97,0.00,,,0.00,0.00,VWS V14.01,2013-04-19 00:17:00,
2013-04-18 20:18:00,59.8,59.0,29.53,ESE,112,9.0,10.0,97,0.00,,,0.00,0.00,VWS V14.01,2013-04-19 00:18:00,
2013-04-18 20:19:00,59.7,58.8,29.52,ESE,112,9.0,12.0,97,0.00,,,0.00,0.00,VWS V14.01,2013-04-19 00:19:00,
2013-04-18 20:20:00,59.7,58.8,29.53,ESE,112,8.0,9.0,97,0.00,,,0.00,0.00,VWS V14.01,2013-04-19 00:20:00,
2013-04-18 20:21:00,59.7,58.8,29.53,ESE,112,8.0,10.0,97,0.00,,,0.00,0.00,VWS V14.01,2013-04-19 00:21:00,
2013-04-18 20:22:00,59.7,58.8,29.53,ESE,112,8.0,10.0,97,0.00,,,0.00,0.00,VWS V14.01,2013-04-19 00:22:00,
2013-04-18 20:23:00,59.7,58.8,29.53,ESE,112,8.0,10.0,97,0.00,,,0.00,0.00,VWS V14.01,2013-04-19 00:23:00,
2013-04-18 20:24:00,59.7,58.8,29.52,ESE,112,10.0,16.0,97,0.00,,,0.00,0.00,VWS V14.01,2013-04-19 00:24:00,
2013-04-18 20:25:00,59.7,58.8,29.53,ESE,112,9.0,13.0,97,0.00,,,0.00,0.00,VWS V14.01,2013-04-19 00:25:00,
2013-04-18 20:26:00,59.7,58.8,29.53,ESE,112,8.0,10.0,97,0.00,,,0.00,0.00,VWS V14.01,2013-04-19 00:26:00,
2013-04-18 20:27:00,59.7,58.8,29.53,ESE,112,7.0,9.0,97,0.00,,,0.00,0.00,VWS V14.01,2013-04-19 00:27:00,
2013-04-18 20:28:00,59.7,58.8,29.52,ESE,112,6.0,8.0,97,0.00,,,0.00,0.00,VWS V14.01,2013-04-19 00:28:00,
2013-04-18 20:29:00,59.7,58.8,29.52,ESE,112,7.0,8.0,97,0.00,,,0.00,0.00,VWS V14.01,2013-04-19 00:29:00,
2013-04-18 20:30:00,59.6,58.8,29.52,ESE,112,7.0,8.0,97,0.00,,,0.00,0.00,VWS V14.01,2013-04-19 00:30:00,
2013-04-18 20:31:00,59.6,58.8,29.53,SE,135,7.0,8.0,97,0.00,,,0.00,0.00,VWS V14.01,2013-04-19 00:31:00,
2013-04-18 20:32:00,59.6,58.8,29.53,SE,135,6.0,8.0,97,0.00,,,0.00,0.00,VWS V14.01,2013-04-19 00:32:00,
2013-04-18 20:33:00,59.6,58.8,29.53,SE,135,8.0,9.0,97,0.00,,,0.00,0.00,VWS V14.01,2013-04-19 00:33:00,
2013-04-18 20:34:00,59.6,58.8,29.53,ESE,112,8.0,9.0,97,0.00,,,0.00,0.00,VWS V14.01,2013-04-19 00:34:00,
2013-04-18 20:35:00,59.6,58.8,29.54,SE,135,7.0,10.0,97,0.00,,,0.00,0.00,VWS V14.01,2013-04-19 00:35:00,
2013-04-18 20:36:00,59.6,58.8,29.53,ESE,112,8.0,10.0,97,0.00,,,0.00,0.00,VWS V14.01,2013-04-19 00:36:00,
2013-04-18 20:37:00,59.6,58.8,29.53,ESE,112,9.0,10.0,97,0.00,,,0.00,0.00,VWS V14.01,2013-04-19 00:37:00,
2013-04-18 20:38:00,59.6,58.8,29.52,ESE,112,8.0,10.0,97,0.00,,,0.00,0.00,VWS V14.01,2013-04-19 00:38:00,
2013-04-18 20:39:00,59.6,58.8,29.53,ESE,112,8.0,10.0,97,0.00,,,0.00,0.00,VWS V14.01,2013-04-19 00:39:00,
2013-04-18 20:40:00,59.6,58.8,29.52,ESE,112,9.0,11.0,97,0.00,,,0.00,0.00,VWS V14.01,2013-04-19 00:40:00,
2013-04-18 20:41:00,59.6,58.8,29.52,ESE,112,10.0,15.0,97,0.00,,,0.00,0.00,VWS V14.01,2013-04-19 00:41:00,
2013-04-18 20:42:00,59.6,58.8,29.51,ESE,112,11.0,13.0,97,0.00,,,0.00,0.00,VWS V14.01,2013-04-19 00:42:00,
2013-04-18 20:43:00,59.6,58.8,29.51,ESE,112,10.0,12.0,97,0.00,,,0.00,0.00,VWS V14.01,2013-04-19 00:43:00,
2013-04-18 20:44:00,59.6,58.8,29.51,ESE,112,10.0,11.0,97,0.00,,,0.00,0.00,VWS V14.01,2013-04-19 00:44:00,
2013-04-18 20:45:00,59.6,58.8,29.51,ESE,112,10.0,11.0,97,0.00,,,0.00,0.00,VWS V14.01,2013-04-19 00:45:00,
2013-04-18 20:46:00,59.6,58.8,29.51,ESE,112,9.0,11.0,97,0.00,,,0.00,0.00,VWS V14.01,2013-04-19 00:46:00,
2013-04-18 20:47:00,59.6,58.8,29.51,ESE,112,10.0,13.0,97,0.00,,,0.00,0.00,VWS V14.01,2013-04-19 00:47:00,
2013-04-18 20:48:00,59.6,58.8,29.51,ESE,112,9.0,14.0,97,0.00,,,0.00,0.00,VWS V14.01,2013-04-19 00:48:00,
2013-04-18 20:49:00,59.6,58.8,29.51,ESE,112,9.0,12.0,97,0.00,,,0.00,0.00,VWS V14.01,2013-04-19 00:49:00,
2013-04-18 20:50:00,59.5,58.7,29.52,ESE,112,10.0,11.0,97,0.00,,,0.00,0.00,VWS V14.01,2013-04-19 00:50:00,
2013-04-18 20:51:00,59.5,58.7,29.51,ESE,112,11.0,15.0,97,0.00,,,0.00,0.00,VWS V14.01,2013-04-19 00:51:00,
2013-04-18 20:52:00,59.6,58.8,29.52,SE,135,9.0,10.0,97,0.00,,,0.00,0.00,VWS V14.01,2013-04-19 00:52:00,
2013-04-18 20:53:00,59.6,58.8,29.51,ESE,112,9.0,11.0,97,0.00,,,0.00,0.00,VWS V14.01,2013-04-19 00:53:00,
2013-04-18 20:54:00,59.6,58.8,29.51,ESE,112,11.0,15.0,97,0.00,,,0.00,0.00,VWS V14.01,2013-04-19 00:54:00,
2013-04-18 20:55:00,59.6,58.8,29.51,ESE,112,11.0,13.0,97,0.00,,,0.00,0.00,VWS V14.01,2013-04-19 00:55:00,
2013-04-18 20:56:00,59.6,58.8,29.51,ESE,112,12.0,14.0,97,0.00,,,0.00,0.00,VWS V14.01,2013-04-19 00:56:00,
2013-04-18 20:57:00,59.6,58.8,29.51,ESE,112,11.0,13.0,97,0.00,,,0.00,0.00,VWS V14.01,2013-04-19 00:57:00,
2013-04-18 20:58:00,59.6,58.8,29.52,ESE,112,10.0,13.0,97,0.00,,,0.00,0.00,VWS V14.01,2013-04-19 00:58:00,
2013-04-18 20:59:00,59.6,58.8,29.52,SE,135,12.0,15.0,97,0.00,,,0.00,0.00,VWS V14.01,2013-04-19 00:59:00,
2013-04-18 21:00:00,59.6,58.8,29.51,ESE,112,10.0,14.0,97,0.00,,,0.00,0.00,VWS V14.01,2013-04-19 01:00:00,
2013-04-18 21:01:00,59.6,58.8,29.52,SE,135,11.0,15.0,97,0.00,,,0.00,0.00,VWS V14.01,2013-04-19 01:01:00,
2013-04-18 21:02:00,59.6,58.8,29.52,SE,135,10.0,13.0,97,0.00,,,0.00,0.00,VWS V14.01,2013-04-19 01:02:00,
2013-04-18 21:03:00,59.6,58.8,29.52,SE,135,10.0,12.0,97,0.00,,,0.00,0.00,VWS V14.01,2013-04-19 01:03:00,
2013-04-18 21:04:00,59.5,58.7,29.52,SE,135,11.0,14.0,97,0.00,,,0.00,0.00,VWS V14.01,2013-04-19 01:04:00,
2013-04-18 21:05:00,59.6,58.8,29.52,ESE,112,11.0,14.0,97,0.00,,,0.00,0.00,VWS V14.01,2013-04-19 01:05:00,
2013-04-18 21:06:00,59.6,58.8,29.52,ESE,112,10.0,13.0,97,0.00,,,0.00,0.00,VWS V14.01,2013-04-19 01:06:00,
2013-04-18 21:07:00,59.5,58.7,29.52,SE,135,11.0,15.0,97,0.00,,,0.00,0.00,VWS V14.01,2013-04-19 01:07:00,
2013-04-18 21:08:00,59.5,58.7,29.52,SE,135,11.0,12.0,97,0.00,,,0.00,0.00,VWS V14.01,2013-04-19 01:08:00,
2013-04-18 21:09:00,59.5,58.7,29.52,ESE,112,10.0,12.0,97,0.00,,,0.00,0.00,VWS V14.01,2013-04-19 01:09:00,
2013-04-18 21:10:00,59.6,58.8,29.52,ESE,112,10.0,12.0,97,0.00,,,0.00,0.00,VWS V14.01,2013-04-19 01:10:00,
2013-04-18 21:11:00,59.5,58.7,29.52,ESE,112,10.0,12.0,97,0.00,,,0.00,0.00,VWS V14.01,2013-04-19 01:11:00,
2013-04-18 21:12:00,59.5,58.7,29.52,SE,135,11.0,13.0,97,0.00,,,0.00,0.00,VWS V14.01,2013-04-19 01:12:00,
2013-04-18 21:13:00,59.5,58.7,29.52,ESE,112,10.0,12.0,97,0.00,,,0.00,0.00,VWS V14.01,2013-04-19 01:13:00,
2013-04-18 21:14:00,59.5,58.7,29.52,ESE,112,11.0,13.0,97,0.00,,,0.00,0.00,VWS V14.01,2013-04-19 01:14:00,
2013-04-18 21:15:00,59.5,58.7,29.52,SE,135,10.0,13.0,97,0.00,,,0.00,0.00,VWS V14.01,2013-04-19 01:15:00,
2013-04-18 21:16:00,59.5,58.7,29.52,ESE,112,9.0,12.0,97,0.00,,,0.00,0.00,VWS V14.01,2013-04-19 01:16:00,
2013-04-18 21:17:00,59.5,58.7,29.52,ESE,112,11.0,14.0,97,0.00,,,0.00,0.00,VWS V14.01,2013-04-19 01:17:00,
2013-04-18 21:18:00,59.5,58.7,29.52,ESE,112,11.0,13.0,97,0.00,,,0.00,0.00,VWS V14.01,2013-04-19 01:18:00,
2013-04-18 21:19:00,59.5,58.7,29.52,ESE,112,10.0,13.0,97,0.00,,,0.00,0.00,VWS V14.01,2013-04-19 01:19:00,
2013-04-18 21:20:00,59.5,58.7,29.52,ESE,112,9.0,11.0,97,0.00,,,0.00,0.00,VWS V14.01,2013-04-19 01:20:00,
2013-04-18 21:21:00,59.5,58.7,29.52,SE,135,11.0,13.0,97,0.00,,,0.00,0.00,VWS V14.01,2013-04-19 01:21:00,
2013-04-18 21:22:00,59.5,58.7,29.52,ESE,112,10.0,13.0,97,0.00,,,0.00,0.00,VWS V14.01,2013-04-19 01:22:00,
2013-04-18 21:23:00,59.5,58.7,29.52,ESE,112,11.0,13.0,97,0.00,,,0.00,0.00,VWS V14.01,2013-04-19 01:23:00,
2013-04-18 21:24:00,59.4,58.5,29.52,ESE,112,10.0,12.0,97,0.00,,,0.00,0.00,VWS V14.01,2013-04-19 01:24:00,
2013-04-18 21:25:00,59.4,58.5,29.52,ESE,112,10.0,12.0,97,0.00,,,0.00,0.00,VWS V14.01,2013-04-19 01:25:00,
2013-04-18 21:26:00,59.4,58.5,29.52,ESE,112,10.0,13.0,97,0.00,,,0.00,0.00,VWS V14.01,2013-04-19 01:26:00,
2013-04-18 21:27:00,59.4,58.5,29.52,ESE,112,9.0,11.0,97,0.00,,,0.00,0.00,VWS V14.01,2013-04-19 01:27:00,
2013-04-18 21:28:00,59.4,58.5,29.52,ESE,112,9.0,10.0,97,0.00,,,0.00,0.00,VWS V14.01,2013-04-19 01:28:00,
2013-04-18 21:29:00,59.4,58.5,29.52,ESE,112,10.0,13.0,97,0.00,,,0.00,0.00,VWS V14.01,2013-04-19 01:29:00,
2013-04-18 21:30:00,59.4,58.5,29.52,ESE,112,11.0,13.0,97,0.00,,,0.00,0.00,VWS V14.01,2013-04-19 01:30:00,
2013-04-18 21:31:00,59.4,58.5,29.51,ESE,112,10.0,12.0,97,0.00,,,0.00,0.00,VWS V14.01,2013-04-19 01:31:00,
2013-04-18 21:32:00,59.4,58.5,29.52,ESE,112,9.0,10.0,97,0.00,,,0.00,0.00,VWS V14.01,2013-04-19 01:32:00,
2013-04-18 21:33:00,59.4,58.5,29.52,ESE,112,10.0,13.0,97,0.01,,,0.01,0.00,VWS V14.01,2013-04-19 01:33:00,
2013-04-18 21:34:00,59.3,58.5,29.53,ESE,112,10.0,13.0,97,0.01,,,0.01,0.00,VWS V14.01,2013-04-19 01:34:00,
2013-04-18 21:35:00,59.3,58.5,29.52,ESE,112,10.0,13.0,97,0.01,,,0.01,0.00,VWS V14.01,2013-04-19 01:35:00,
2013-04-18 21:36:00,59.4,58.5,29.53,SE,135,9.0,14.0,97,0.01,,,0.01,0.00,VWS V14.01,2013-04-19 01:36:00,
2013-04-18 21:37:00,59.4,58.5,29.53,ESE,112,10.0,13.0,97,0.01,,,0.01,0.00,VWS V14.01,2013-04-19 01:37:00,
2013-04-18 21:38:00,59.4,58.5,29.53,ESE,112,10.0,11.0,97,0.01,,,0.01,0.00,VWS V14.01,2013-04-19 01:38:00,
2013-04-18 21:39:00,59.4,58.5,29.53,SE,135,9.0,12.0,97,0.01,,,0.01,0.00,VWS V14.01,2013-04-19 01:39:00,
2013-04-18 21:40:00,59.4,58.5,29.53,ESE,112,10.0,12.0,97,0.01,,,0.01,0.00,VWS V14.01,2013-04-19 01:40:00,
2013-04-18 21:41:00,59.4,58.5,29.53,ESE,112,11.0,13.0,97,0.01,,,0.01,0.00,VWS V14.01,2013-04-19 01:41:00,
2013-04-18 21:42:00,59.4,58.3,29.52,ESE,112,9.0,11.0,96,0.01,,,0.01,0.00,VWS V14.01,2013-04-19 01:42:00,
2013-04-18 21:43:00,59.4,58.3,29.52,ESE,112,9.0,11.0,96,0.01,,,0.01,0.00,VWS V14.01,2013-04-19 01:43:00,
2013-04-18 21:44:00,59.4,58.3,29.52,SE,135,9.0,10.0,96,0.01,,,0.01,0.00,VWS V14.01,2013-04-19 01:44:00,
2013-04-18 21:45:00,59.3,58.2,29.53,SE,135,8.0,10.0,96,0.01,,,0.01,0.00,VWS V14.01,2013-04-19 01:45:00,
2013-04-18 21:46:00,59.4,58.3,29.53,SE,135,9.0,12.0,96,0.01,,,0.01,0.00,VWS V14.01,2013-04-19 01:46:00,
2013-04-18 21:47:00,59.4,58.3,29.53,ESE,112,9.0,11.0,96,0.01,,,0.01,0.00,VWS V14.01,2013-04-19 01:47:00,
2013-04-18 21:48:00,59.3,58.2,29.52,ESE,112,10.0,12.0,96,0.01,,,0.01,0.00,VWS V14.01,2013-04-19 01:48:00,
2013-04-18 21:49:00,59.3,58.2,29.52,ESE,112,10.0,13.0,96,0.01,,,0.01,0.00,VWS V14.01,2013-04-19 01:49:00,
2013-04-18 21:50:00,59.3,58.2,29.52,ESE,112,10.0,13.0,96,0.01,,,0.01,0.00,VWS V14.01,2013-04-19 01:50:00,
2013-04-18 21:51:00,59.3,58.2,29.52,ESE,112,10.0,12.0,96,0.01,,,0.01,0.00,VWS V14.01,2013-04-19 01:51:00,
2013-04-18 21:52:00,59.3,58.2,29.52,ESE,112,10.0,13.0,96,0.01,,,0.01,0.00,VWS V14.01,2013-04-19 01:52:00,
2013-04-18 21:53:00,59.3,58.2,29.52,ESE,112,10.0,11.0,96,0.01,,,0.01,0.00,VWS V14.01,2013-04-19 01:53:00,
2013-04-18 21:54:00,59.3,58.2,29.52,ESE,112,10.0,12.0,96,0.01,,,0.01,0.00,VWS V14.01,2013-04-19 01:54:00,
2013-04-18 21:55:00,59.2,58.1,29.52,ESE,112,10.0,12.0,96,0.01,,,0.01,0.00,VWS V14.01,2013-04-19 01:55:00,
2013-04-18 21:56:00,59.2,58.1,29.52,ESE,112,11.0,13.0,96,0.01,,,0.01,0.00,VWS V14.01,2013-04-19 01:56:00,
2013-04-18 21:57:00,59.2,58.1,29.52,ESE,112,10.0,11.0,96,0.01,,,0.01,0.00,VWS V14.01,2013-04-19 01:57:00,
2013-04-18 21:58:00,59.2,58.1,29.52,ESE,112,10.0,13.0,96,0.01,,,0.01,0.00,VWS V14.01,2013-04-19 01:58:00,
2013-04-18 21:59:00,59.2,58.1,29.53,ESE,112,9.0,10.0,96,0.01,,,0.01,0.00,VWS V14.01,2013-04-19 01:59:00,
2013-04-18 22:00:00,59.2,58.1,29.52,ESE,112,8.0,10.0,96,0.01,,,0.01,0.00,VWS V14.01,2013-04-19 02:00:00,
2013-04-18 22:01:00,59.2,58.1,29.52,ESE,112,9.0,11.0,96,0.01,,,0.01,0.00,VWS V14.01,2013-04-19 02:01:00,
2013-04-18 22:02:00,59.1,58.0,29.52,ESE,112,12.0,15.0,96,0.01,,,0.01,0.00,VWS V14.01,2013-04-19 02:02:00,
2013-04-18 22:03:00,59.1,58.0,29.52,ESE,112,10.0,12.0,96,0.01,,,0.01,0.00,VWS V14.01,2013-04-19 02:03:00,
2013-04-18 22:04:00,59.1,58.0,29.52,ESE,112,9.0,12.0,96,0.01,,,0.01,0.00,VWS V14.01,2013-04-19 02:04:00,
2013-04-18 22:05:00,59.1,58.0,29.52,ESE,112,9.0,12.0,96,0.01,,,0.01,0.00,VWS V14.01,2013-04-19 02:05:00,
2013-04-18 22:06:00,59.1,58.0,29.52,ESE,112,10.0,13.0,96,0.01,,,0.01,0.00,VWS V14.01,2013-04-19 02:06:00,
2013-04-18 22:07:00,59.1,58.0,29.52,ESE,112,10.0,13.0,96,0.01,,,0.01,0.00,VWS V14.01,2013-04-19 02:07:00,
2013-04-18 22:08:00,59.1,58.0,29.52,ESE,112,9.0,12.0,96,0.01,,,0.01,0.00,VWS V14.01,2013-04-19 02:08:00,
2013-04-18 22:09:00,59.1,58.0,29.52,ESE,112,11.0,17.0,96,0.01,,,0.01,0.00,VWS V14.01,2013-04-19 02:09:00,
2013-04-18 22:10:00,59.0,57.9,29.51,ESE,112,9.0,13.0,96,0.01,,,0.01,0.00,VWS V14.01,2013-04-19 02:10:00,
2013-04-18 22:11:00,59.0,57.9,29.51,ESE,112,12.0,15.0,96,0.01,,,0.01,0.00,VWS V14.01,2013-04-19 02:11:00,
2013-04-18 22:12:00,59.0,57.9,29.51,ESE,112,10.0,13.0,96,0.01,,,0.01,0.00,VWS V14.01,2013-04-19 02:12:00,
2013-04-18 22:13:00,59.0,57.9,29.51,ESE,112,9.0,11.0,96,0.01,,,0.01,0.00,VWS V14.01,2013-04-19 02:13:00,
2013-04-18 22:14:00,59.0,57.9,29.51,ESE,112,10.0,11.0,96,0.01,,,0.01,0.00,VWS V14.01,2013-04-19 02:14:00,
2013-04-18 22:15:00,59.0,57.9,29.51,ESE,112,10.0,12.0,96,0.01,,,0.01,0.00,VWS V14.01,2013-04-19 02:15:00,
2013-04-18 22:16:00,59.0,57.9,29.51,ESE,112,9.0,10.0,96,0.01,,,0.01,0.00,VWS V14.01,2013-04-19 02:16:00,
2013-04-18 22:17:00,59.0,57.9,29.51,ESE,112,10.0,12.0,96,0.01,,,0.01,0.00,VWS V14.01,2013-04-19 02:17:00,
2013-04-18 22:18:00,59.0,57.9,29.51,ESE,112,11.0,15.0,96,0.01,,,0.01,0.00,VWS V14.01,2013-04-19 02:18:00,
2013-04-18 22:19:00,58.9,57.8,29.51,ESE,112,11.0,14.0,96,0.01,,,0.01,0.00,VWS V14.01,2013-04-19 02:19:00,
2013-04-18 22:20:00,59.0,57.9,29.51,ESE,112,12.0,14.0,96,0.01,,,0.01,0.00,VWS V14.01,2013-04-19 02:20:00,
2013-04-18 22:21:00,58.9,57.8,29.51,ESE,112,11.0,15.0,96,0.01,,,0.01,0.00,VWS V14.01,2013-04-19 02:21:00,
2013-04-18 22:22:00,58.9,57.8,29.51,ESE,112,10.0,14.0,96,0.01,,,0.01,0.00,VWS V14.01,2013-04-19 02:22:00,
2013-04-18 22:23:00,58.9,57.8,29.51,ESE,112,11.0,14.0,96,0.01,,,0.01,0.00,VWS V14.01,2013-04-19 02:23:00,
2013-04-18 22:24:00,58.9,57.8,29.51,ESE,112,10.0,13.0,96,0.01,,,0.01,0.00,VWS V14.01,2013-04-19 02:24:00,
2013-04-18 22:25:00,58.9,57.8,29.50,ESE,112,10.0,12.0,96,0.01,,,0.01,0.00,VWS V14.01,2013-04-19 02:25:00,
2013-04-18 22:26:00,58.9,57.8,29.50,ESE,112,9.0,11.0,96,0.01,,,0.01,0.00,VWS V14.01,2013-04-19 02:26:00,
2013-04-18 22:27:00,58.9,57.8,29.50,ESE,112,9.0,11.0,96,0.01,,,0.01,0.00,VWS V14.01,2013-04-19 02:27:00,
2013-04-18 22:28:00,58.9,57.8,29.50,ESE,112,11.0,16.0,96,0.01,,,0.01,0.00,VWS V14.01,2013-04-19 02:28:00,
2013-04-18 22:29:00,58.9,57.8,29.50,ESE,112,10.0,12.0,96,0.01,,,0.01,0.00,VWS V14.01,2013-04-19 02:29:00,
2013-04-18 22:30:00,58.9,57.8,29.50,ESE,112,11.0,13.0,96,0.01,,,0.01,0.00,VWS V14.01,2013-04-19 02:30:00,
2013-04-18 22:31:00,58.9,57.8,29.50,ESE,112,10.0,13.0,96,0.01,,,0.01,0.00,VWS V14.01,2013-04-19 02:31:00,
2013-04-18 22:32:00,58.9,57.8,29.50,ESE,112,12.0,14.0,96,0.01,,,0.01,0.00,VWS V14.01,2013-04-19 02:32:00,
2013-04-18 22:33:00,58.9,57.8,29.50,ESE,112,10.0,13.0,96,0.01,,,0.01,0.00,VWS V14.01,2013-04-19 02:33:00,
2013-04-18 22:34:00,58.9,57.8,29.50,ESE,112,10.0,13.0,96,0.00,,,0.01,0.00,VWS V14.01,2013-04-19 02:34:00,
2013-04-18 22:35:00,58.9,57.8,29.50,ESE,112,10.0,11.0,96,0.00,,,0.01,0.00,VWS V14.01,2013-04-19 02:35:00,
2013-04-18 22:36:00,58.9,57.8,29.50,ESE,112,10.0,0.0,96,0.00,,,0.01,0.00,VWS V14.01,2013-04-19 02:36:00,
2013-04-18 22:37:00,58.9,57.8,29.50,ESE,112,10.0,14.0,96,0.00,,,0.01,0.00,VWS V14.01,2013-04-19 02:37:00,
2013-04-18 22:38:00,58.9,57.8,29.50,ESE,112,10.0,11.0,96,0.00,,,0.01,0.00,VWS V14.01,2013-04-19 02:38:00,
2013-04-18 22:39:00,58.9,57.8,29.50,ESE,112,10.0,12.0,96,0.00,,,0.01,0.00,VWS V14.01,2013-04-19 02:39:00,
2013-04-18 22:40:00,58.8,57.7,29.50,ESE,112,9.0,11.0,96,0.00,,,0.01,0.00,VWS V14.01,2013-04-19 02:40:00,
2013-04-18 22:41:00,58.8,57.7,29.49,ESE,112,10.0,15.0,96,0.00,,,0.01,0.00,VWS V14.01,2013-04-19 02:41:00,
2013-04-18 22:42:00,58.9,57.8,29.49,ESE,112,9.0,13.0,96,0.00,,,0.01,0.00,VWS V14.01,2013-04-19 02:42:00,
2013-04-18 22:43:00,58.8,57.7,29.49,ESE,112,9.0,11.0,96,0.00,,,0.01,0.00,VWS V14.01,2013-04-19 02:43:00,
2013-04-18 22:44:00,58.8,57.7,29.49,ESE,112,10.0,12.0,96,0.00,,,0.01,0.00,VWS V14.01,2013-04-19 02:44:00,
2013-04-18 22:45:00,58.8,57.7,29.50,ESE,112,9.0,13.0,96,0.00,,,0.01,0.00,VWS V14.01,2013-04-19 02:45:00,
2013-04-18 22:46:00,58.8,57.7,29.49,ESE,112,8.0,10.0,96,0.00,,,0.01,0.00,VWS V14.01,2013-04-19 02:46:00,
2013-04-18 22:47:00,58.8,57.7,29.50,ESE,112,9.0,11.0,96,0.00,,,0.01,0.00,VWS V14.01,2013-04-19 02:47:00,
2013-04-18 22:48:00,58.8,57.7,29.50,ESE,112,8.0,10.0,96,0.00,,,0.01,0.00,VWS V14.01,2013-04-19 02:48:00,
2013-04-18 22:49:00,58.8,57.7,29.50,ESE,112,8.0,9.0,96,0.00,,,0.01,0.00,VWS V14.01,2013-04-19 02:49:00,
2013-04-18 22:50:00,58.8,57.7,29.50,ESE,112,8.0,10.0,96,0.00,,,0.01,0.00,VWS V14.01,2013-04-19 02:50:00,
2013-04-18 22:51:00,58.8,57.7,29.50,ESE,112,8.0,10.0,96,0.00,,,0.01,0.00,VWS V14.01,2013-04-19 02:51:00,
2013-04-18 22:52:00,58.8,57.7,29.49,ESE,112,9.0,11.0,96,0.00,,,0.01,0.00,VWS V14.01,2013-04-19 02:52:00,
2013-04-18 22:53:00,58.8,57.7,29.49,ESE,112,9.0,10.0,96,0.00,,,0.01,0.00,VWS V14.01,2013-04-19 02:53:00,
2013-04-18 22:54:00,58.8,57.7,29.49,ESE,112,8.0,9.0,96,0.00,,,0.01,0.00,VWS V14.01,2013-04-19 02:54:00,
2013-04-18 22:55:00,58.8,57.7,29.49,ESE,112,8.0,10.0,96,0.00,,,0.01,0.00,VWS V14.01,2013-04-19 02:55:00,
2013-04-18 22:56:00,58.7,57.6,29.49,ESE,112,9.0,12.0,96,0.00,,,0.01,0.00,VWS V14.01,2013-04-19 02:56:00,
2013-04-18 22:57:00,58.7,57.6,29.48,ESE,112,9.0,11.0,96,0.00,,,0.01,0.00,VWS V14.01,2013-04-19 02:57:00,
2013-04-18 22:58:00,58.7,57.6,29.48,ESE,112,9.0,11.0,96,0.00,,,0.01,0.00,VWS V14.01,2013-04-19 02:58:00,
2013-04-18 22:59:00,58.7,57.6,29.49,ESE,112,9.0,11.0,96,0.00,,,0.01,0.00,VWS V14.01,2013-04-19 02:59:00,
2013-04-18 23:00:00,58.7,57.6,29.48,ESE,112,9.0,11.0,96,0.00,,,0.01,0.00,VWS V14.01,2013-04-19 03:00:00,
2013-04-18 23:01:00,58.8,57.7,29.48,ESE,112,10.0,13.0,96,0.00,,,0.01,0.00,VWS V14.01,2013-04-19 03:01:00,
2013-04-18 23:02:00,58.8,57.7,29.48,ESE,112,10.0,13.0,96,0.00,,,0.01,0.00,VWS V14.01,2013-04-19 03:02:00,
2013-04-18 23:03:00,58.8,57.7,29.48,ESE,112,8.0,9.0,96,0.00,,,0.01,0.00,VWS V14.01,2013-04-19 03:03:00,
2013-04-18 23:04:00,58.8,57.7,29.48,ESE,112,9.0,12.0,96,0.00,,,0.01,0.00,VWS V14.01,2013-04-19 03:04:00,
2013-04-18 23:05:00,58.7,57.6,29.48,ESE,112,9.0,12.0,96,0.00,,,0.01,0.00,VWS V14.01,2013-04-19 03:05:00,
2013-04-18 23:06:00,58.7,57.6,29.48,ESE,112,8.0,10.0,96,0.00,,,0.01,0.00,VWS V14.01,2013-04-19 03:06:00,
2013-04-18 23:07:00,58.8,57.7,29.48,ESE,112,10.0,12.0,96,0.00,,,0.01,0.00,VWS V14.01,2013-04-19 03:07:00,
2013-04-18 23:08:00,58.8,57.7,29.49,ESE,112,9.0,12.0,96,0.00,,,0.01,0.00,VWS V14.01,2013-04-19 03:08:00,
2013-04-18 23:09:00,58.7,57.8,29.48,SE,135,8.0,12.0,97,0.00,,,0.01,0.00,VWS V14.01,2013-04-19 03:09:00,
2013-04-18 23:10:00,58.7,57.8,29.48,ESE,112,8.0,11.0,97,0.00,,,0.01,0.00,VWS V14.01,2013-04-19 03:10:00,
2013-04-18 23:11:00,58.8,58.0,29.48,ESE,112,9.0,11.0,97,0.00,,,0.01,0.00,VWS V14.01,2013-04-19 03:11:00,
2013-04-18 23:12:00,58.7,57.8,29.48,ESE,112,9.0,11.0,97,0.00,,,0.01,0.00,VWS V14.01,2013-04-19 03:12:00,
2013-04-18 23:13:00,58.7,57.8,29.48,ESE,112,9.0,11.0,97,0.00,,,0.01,0.00,VWS V14.01,2013-04-19 03:13:00,
2013-04-18 23:14:00,58.7,57.8,29.48,ESE,112,8.0,10.0,97,0.00,,,0.01,0.00,VWS V14.01,2013-04-19 03:14:00,
2013-04-18 23:15:00,58.7,57.8,29.48,ESE,112,8.0,10.0,97,0.00,,,0.01,0.00,VWS V14.01,2013-04-19 03:15:00,
2013-04-18 23:16:00,58.7,57.8,29.48,ESE,112,8.0,10.0,97,0.00,,,0.01,0.00,VWS V14.01,2013-04-19 03:16:00,
2013-04-18 23:17:00,58.7,57.8,29.48,SE,135,8.0,9.0,97,0.00,,,0.01,0.00,VWS V14.01,2013-04-19 03:17:00,
2013-04-18 23:18:00,58.7,57.8,29.48,SE,135,8.0,10.0,97,0.00,,,0.01,0.00,VWS V14.01,2013-04-19 03:18:00,
2013-04-18 23:19:00,58.7,57.8,29.49,SE,135,8.0,11.0,97,0.00,,,0.01,0.00,VWS V14.01,2013-04-19 03:19:00,
2013-04-18 23:20:00,58.7,57.8,29.48,ESE,112,9.0,13.0,97,0.00,,,0.01,0.00,VWS V14.01,2013-04-19 03:20:00,
2013-04-18 23:21:00,58.8,58.0,29.48,ESE,112,9.0,10.0,97,0.00,,,0.01,0.00,VWS V14.01,2013-04-19 03:21:00,
2013-04-18 23:22:00,58.8,58.0,29.48,ESE,112,9.0,11.0,97,0.00,,,0.01,0.00,VWS V14.01,2013-04-19 03:22:00,
2013-04-18 23:23:00,58.8,58.0,29.48,ESE,112,9.0,11.0,97,0.00,,,0.01,0.00,VWS V14.01,2013-04-19 03:23:00,
2013-04-18 23:24:00,58.8,58.0,29.47,ESE,112,8.0,9.0,97,0.00,,,0.01,0.00,VWS V14.01,2013-04-19 03:24:00,
2013-04-18 23:25:00,58.8,58.0,29.48,SE,135,9.0,11.0,97,0.00,,,0.01,0.00,VWS V14.01,2013-04-19 03:25:00,
2013-04-18 23:26:00,58.8,58.0,29.48,SE,135,9.0,12.0,97,0.00,,,0.01,0.00,VWS V14.01,2013-04-19 03:26:00,
2013-04-18 23:27:00,58.8,58.0,29.48,ESE,112,9.0,10.0,97,0.00,,,0.01,0.00,VWS V14.01,2013-04-19 03:27:00,
2013-04-18 23:28:00,58.8,58.0,29.48,ESE,112,9.0,11.0,97,0.00,,,0.01,0.00,VWS V14.01,2013-04-19 03:28:00,
2013-04-18 23:29:00,58.7,57.8,29.48,ESE,112,10.0,12.0,97,0.00,,,0.01,0.00,VWS V14.01,2013-04-19 03:29:00,
2013-04-18 23:30:00,58.8,58.0,29.48,ESE,112,11.0,13.0,97,0.00,,,0.01,0.00,VWS V14.01,2013-04-19 03:30:00,
2013-04-18 23:31:00,58.8,58.0,29.47,ESE,112,11.0,14.0,97,0.00,,,0.01,0.00,VWS V14.01,2013-04-19 03:31:00,
2013-04-18 23:32:00,58.8,58.0,29.47,ESE,112,12.0,13.0,97,0.00,,,0.01,0.00,VWS V14.01,2013-04-19 03:32:00,
2013-04-18 23:33:00,58.8,58.0,29.47,ESE,112,12.0,14.0,97,0.00,,,0.01,0.00,VWS V14.01,2013-04-19 03:33:00,
2013-04-18 23:34:00,58.8,58.0,29.46,ESE,112,10.0,12.0,97,0.00,,,0.01,0.00,VWS V14.01,2013-04-19 03:34:00,
2013-04-18 23:35:00,58.8,58.0,29.47,SE,135,6.0,10.0,97,0.00,,,0.01,0.00,VWS V14.01,2013-04-19 03:35:00,
2013-04-18 23:36:00,58.8,58.0,29.47,SE,135,6.0,9.0,97,0.00,,,0.01,0.00,VWS V14.01,2013-04-19 03:36:00,
2013-04-18 23:37:00,58.8,58.0,29.47,SE,135,7.0,9.0,97,0.00,,,0.01,0.00,VWS V14.01,2013-04-19 03:37:00,
2013-04-18 23:38:00,58.9,58.0,29.47,ESE,112,9.0,12.0,97,0.00,,,0.01,0.00,VWS V14.01,2013-04-19 03:38:00,
2013-04-18 23:39:00,58.8,58.0,29.46,ESE,112,8.0,11.0,97,0.00,,,0.01,0.00,VWS V14.01,2013-04-19 03:39:00,
2013-04-18 23:40:00,58.9,58.0,29.46,ESE,112,8.0,10.0,97,0.00,,,0.01,0.00,VWS V14.01,2013-04-19 03:40:00,
2013-04-18 23:41:00,58.9,58.0,29.46,SE,135,7.0,9.0,97,0.00,,,0.01,0.00,VWS V14.01,2013-04-19 03:41:00,
2013-04-18 23:42:00,58.9,58.0,29.46,ESE,112,10.0,12.0,97,0.00,,,0.01,0.00,VWS V14.01,2013-04-19 03:42:00,
2013-04-18 23:43:00,58.9,58.0,29.46,ESE,112,9.0,12.0,97,0.00,,,0.01,0.00,VWS V14.01,2013-04-19 03:43:00,
2013-04-18 23:44:00,58.9,58.0,29.46,ESE,112,8.0,9.0,97,0.00,,,0.01,0.00,VWS V14.01,2013-04-19 03:44:00,
2013-04-18 23:45:00,58.9,58.0,29.46,SE,135,8.0,10.0,97,0.00,,,0.01,0.00,VWS V14.01,2013-04-19 03:45:00,
2013-04-18 23:46:00,58.9,58.0,29.46,SE,135,9.0,11.0,97,0.00,,,0.01,0.00,VWS V14.01,2013-04-19 03:46:00,
2013-04-18 23:47:00,59.0,58.2,29.46,SE,135,8.0,12.0,97,0.00,,,0.01,0.00,VWS V14.01,2013-04-19 03:47:00,
2013-04-18 23:48:00,59.0,58.2,29.46,ESE,112,9.0,13.0,97,0.00,,,0.01,0.00,VWS V14.01,2013-04-19 03:48:00,
2013-04-18 23:49:00,59.1,58.2,29.46,ESE,112,9.0,12.0,97,0.00,,,0.01,0.00,VWS V14.01,2013-04-19 03:49:00,
2013-04-18 23:50:00,59.1,58.2,29.46,SE,135,8.0,11.0,97,0.00,,,0.01,0.00,VWS V14.01,2013-04-19 03:50:00,
2013-04-18 23:51:00,59.1,58.2,29.46,SE,135,7.0,10.0,97,0.00,,,0.01,0.00,VWS V14.01,2013-04-19 03:51:00,
2013-04-18 23:52:00,59.1,58.2,29.46,SE,135,6.0,8.0,97,0.00,,,0.01,0.00,VWS V14.01,2013-04-19 03:52:00,
2013-04-18 23:53:00,59.1,58.2,29.46,SE,135,5.0,10.0,97,0.00,,,0.01,0.00,VWS V14.01,2013-04-19 03:53:00,
2013-04-18 23:54:00,59.1,58.2,29.46,SE,135,6.0,10.0,97,0.00,,,0.01,0.00,VWS V14.01,2013-04-19 03:54:00,
2013-04-18 23:55:00,59.1,58.2,29.46,SE,135,6.0,9.0,97,0.00,,,0.01,0.00,VWS V14.01,2013-04-19 03:55:00,
2013-04-18 23:56:00,59.1,58.2,29.46,SE,135,4.0,6.0,97,0.00,,,0.01,0.00,VWS V14.01,2013-04-19 03:56:00,
2013-04-18 23:57:00,59.1,58.2,29.46,SE,135,3.0,4.0,97,0.00,,,0.01,0.00,VWS V14.01,2013-04-19 03:57:00,
2013-04-18 23:58:00,59.1,58.2,29.46,ESE,112,5.0,9.0,97,0.00,,,0.01,0.00,VWS V14.01,2013-04-19 03:58:00,
2013-04-18 23:59:00,59.1,58.2,29.46,SE,135,6.0,8.0,97,0.00,,,0.01,0.00,VWS V14.01,2013-04-19 03:59:00,